Time;durP1;ratioP1;P1;durP2;ratioP2;P2;SDS_P1;SDS_P2;PMS_P1;PMS_P2;Temp;Humidity;BMP_temperature;BMP_pressure;BME280_temperature;BME280_humidity;BME280_pressure;Samples;Min_cycle;Max_cycle;Signal;HPM_P1;HPM_P2
2021/12/19 00:00:06;;;;;;;3.15;1.33;;;21.80;78.80;;;;;;7838774;28;20212;-49
2021/12/19 00:04:01;;;;;;;2.10;1.35;;;21.80;78.80;;;;;;7839184;28;20209;-49
2021/12/19 00:11:51;;;;;;;2.80;1.60;;;21.80;78.60;;;;;;7839206;28;20177;-49
2021/12/19 00:15:36;;;;;;;3.30;1.20;;;21.70;78.50;;;;;;7838866;28;20239;-49
2021/12/19 00:19:22;;;;;;;2.53;1.58;;;21.70;78.40;;;;;;7838406;28;20201;-52
2021/12/19 00:23:08;;;;;;;4.45;1.33;;;21.70;78.50;;;;;;7838844;28;20205;-49
2021/12/19 00:26:53;;;;;;;2.53;1.50;;;21.70;78.30;;;;;;7838408;28;20177;-50
2021/12/19 00:30:39;;;;;;;3.53;1.33;;;21.70;78.30;;;;;;7838246;28;20513;-49
2021/12/19 00:34:24;;;;;;;1.60;1.27;;;21.60;78.40;;;;;;7838457;28;20605;-52
2021/12/19 00:38:10;;;;;;;2.97;1.40;;;21.60;78.40;;;;;;7837986;28;20202;-50
2021/12/19 00:41:56;;;;;;;3.13;1.30;;;21.60;78.40;;;;;;7838010;28;20269;-50
2021/12/19 00:45:41;;;;;;;2.55;1.75;;;21.60;78.40;;;;;;7838388;28;20175;-49
2021/12/19 00:49:27;;;;;;;3.22;1.30;;;21.60;78.40;;;;;;7837677;28;20197;-51
2021/12/19 00:53:12;;;;;;;3.70;1.30;;;21.50;78.40;;;;;;7838056;28;20182;-49
2021/12/19 00:56:58;;;;;;;1.90;1.40;;;21.50;78.20;;;;;;7837871;28;20723;-50
2021/12/19 01:00:43;;;;;;;2.35;1.23;;;21.50;78.10;;;;;;7837600;28;20181;-49
2021/12/19 01:04:29;;;;;;;2.40;1.30;;;21.50;78.10;;;;;;7837724;28;20247;-51
2021/12/19 01:08:15;;;;;;;2.45;1.40;;;21.40;78.10;;;;;;7837418;28;20194;-49
2021/12/19 01:12:01;;;;;;;2.33;1.10;;;21.40;78.10;;;;;;7837673;28;20194;-51
2021/12/19 01:15:47;;;;;;;2.47;1.20;;;21.40;78.20;;;;;;7837662;28;20184;-49
2021/12/19 01:19:33;;;;;;;3.25;1.38;;;21.40;78.20;;;;;;7837363;28;20725;-52
2021/12/19 01:23:19;;;;;;;2.42;1.27;;;21.40;78.10;;;;;;7837443;28;20563;-50
2021/12/19 01:27:07;;;;;;;3.22;1.42;;;21.30;78.10;;;;;;7842260;28;20724;-49
2021/12/19 01:30:52;;;;;;;1.65;1.27;;;21.40;78.10;;;;;;7843522;28;20171;-49
2021/12/19 01:34:38;;;;;;;1.63;1.10;;;21.30;78.00;;;;;;7843305;28;20184;-49
2021/12/19 01:38:23;;;;;;;2.85;1.30;;;21.30;77.90;;;;;;7842898;28;20698;-50
2021/12/19 01:42:11;;;;;;;4.93;1.20;;;21.30;77.90;;;;;;7842956;28;20240;-49
2021/12/19 01:45:57;;;;;;;1.58;1.23;;;21.30;77.80;;;;;;7842418;28;20166;-49
2021/12/19 01:49:42;;;;;;;2.65;1.30;;;21.20;77.80;;;;;;7842605;28;20280;-49
2021/12/19 01:53:28;;;;;;;1.42;1.23;;;21.20;77.70;;;;;;7842846;28;20181;-52
2021/12/19 01:57:14;;;;;;;3.55;1.20;;;21.10;77.80;;;;;;7842785;28;20285;-49
2021/12/19 02:01:00;;;;;;;2.85;1.45;;;21.10;77.80;;;;;;7842513;28;20572;-49
2021/12/19 02:04:46;;;;;;;2.58;1.40;;;21.00;77.90;;;;;;7842802;28;20217;-49
2021/12/19 02:08:32;;;;;;;3.03;1.27;;;21.10;78.10;;;;;;7842399;28;20201;-49
2021/12/19 02:12:18;;;;;;;5.40;1.50;;;21.00;78.10;;;;;;7842674;28;20245;-49
2021/12/19 02:16:04;;;;;;;6.90;1.20;;;21.00;78.10;;;;;;7842631;28;20189;-49
2021/12/19 02:19:50;;;;;;;7.68;1.60;;;21.00;78.10;;;;;;7842063;28;20579;-49
2021/12/19 02:23:35;;;;;;;5.45;1.33;;;21.00;78.10;;;;;;7842139;28;20232;-52
2021/12/19 02:27:26;;;;;;;6.05;1.50;;;21.00;78.10;;;;;;7842021;28;20212;-49
2021/12/19 02:31:12;;;;;;;3.45;1.25;;;21.00;78.10;;;;;;7841836;28;20208;-50
2021/12/19 02:35:01;;;;;;;4.63;1.27;;;21.00;78.10;;;;;;7841791;28;20268;-51
2021/12/19 02:48:10;;;;;;;5.13;1.20;;;20.90;77.90;;;;;;7841302;28;20308;-49
2021/12/19 02:51:18;;;;;;;6.80;1.42;;;20.90;77.80;;;;;;7841190;28;20170;-49
2021/12/19 02:55:05;;;;;;;2.67;1.50;;;20.90;77.80;;;;;;7841501;28;20185;-49
2021/12/19 02:58:51;;;;;;;4.25;1.52;;;20.90;77.80;;;;;;7840674;28;20202;-50
2021/12/19 03:02:36;;;;;;;2.20;1.33;;;20.80;77.80;;;;;;7840783;28;20205;-52
2021/12/19 03:06:22;;;;;;;3.00;1.45;;;20.80;77.80;;;;;;7840738;28;20257;-50
2021/12/19 03:18:20;;;;;;;2.28;1.55;;;20.80;77.70;;;;;;7840123;28;20194;-48
2021/12/19 03:22:05;;;;;;;2.95;1.40;;;20.80;77.60;;;;;;7840140;28;20211;-49
2021/12/19 03:25:51;;;;;;;2.72;1.52;;;20.80;77.60;;;;;;7840068;28;20185;-50
2021/12/19 03:29:36;;;;;;;2.13;1.20;;;20.80;77.60;;;;;;7839713;28;20228;-53
2021/12/19 03:33:22;;;;;;;2.72;1.40;;;20.80;77.50;;;;;;7839930;28;20185;-50
2021/12/19 03:37:07;;;;;;;1.75;1.30;;;20.80;77.60;;;;;;7839870;28;20344;-49
2021/12/19 03:41:09;;;;;;;1.85;1.30;;;20.80;77.60;;;;;;7839529;28;20197;-50
2021/12/19 03:44:54;;;;;;;2.15;1.52;;;20.70;77.50;;;;;;7839422;28;20262;-52
2021/12/19 03:48:40;;;;;;;1.80;1.20;;;20.70;77.50;;;;;;7838517;28;20251;-49
2021/12/19 03:52:25;;;;;;;2.30;1.50;;;20.70;77.60;;;;;;7839262;28;20178;-49
2021/12/19 03:56:11;;;;;;;1.48;1.27;;;20.70;77.50;;;;;;7839203;28;20186;-50
2021/12/19 03:59:56;;;;;;;3.70;1.42;;;20.70;77.60;;;;;;7838816;28;20193;-49
2021/12/19 04:03:44;;;;;;;3.63;1.40;;;20.60;77.50;;;;;;7839158;28;20297;-49
2021/12/19 04:07:30;;;;;;;1.30;1.20;;;20.60;77.60;;;;;;7838645;28;20285;-51
2021/12/19 04:11:15;;;;;;;2.17;1.35;;;20.60;77.70;;;;;;7838898;28;20174;-50
2021/12/19 04:15:01;;;;;;;2.05;1.40;;;20.60;77.60;;;;;;7838849;28;20186;-49
2021/12/19 04:18:47;;;;;;;2.50;1.80;;;20.60;77.60;;;;;;7838409;28;20279;-49
2021/12/19 04:22:32;;;;;;;2.10;1.42;;;20.60;77.60;;;;;;7838484;28;20202;-49
2021/12/19 04:26:18;;;;;;;2.28;1.30;;;20.50;77.50;;;;;;7838500;28;20204;-51
2021/12/19 04:30:08;;;;;;;1.55;1.35;;;20.50;77.40;;;;;;7838143;28;20213;-50
2021/12/19 04:33:55;;;;;;;2.17;1.27;;;20.50;77.40;;;;;;7838416;28;20556;-49
2021/12/19 04:50:59;;;;;;;1.55;1.30;;;20.50;77.40;;;;;;7838559;28;20677;-49
2021/12/19 04:57:57;;;;;;;2.78;1.38;;;20.50;77.30;;;;;;7838178;28;20205;-51
2021/12/19 05:02:32;;;;;;;3.17;1.42;;;20.40;77.40;;;;;;7844068;28;20170;-52
2021/12/19 05:06:17;;;;;;;1.85;1.48;;;20.40;77.40;;;;;;7843200;28;20268;-51
2021/12/19 05:14:05;;;;;;;1.50;1.33;;;20.40;77.40;;;;;;7844049;28;20225;-49
2021/12/19 05:14:29;;;;;;;1.80;1.42;;;20.40;77.40;;;;;;7843971;28;20189;-49
2021/12/19 05:18:15;;;;;;;2.17;1.52;;;20.40;77.40;;;;;;7843860;28;20200;-51
2021/12/19 05:22:02;;;;;;;2.00;1.45;;;20.40;77.30;;;;;;7843817;28;20249;-51
2021/12/19 05:25:48;;;;;;;2.72;1.55;;;20.40;77.40;;;;;;7843629;28;20686;-53
2021/12/19 05:29:34;;;;;;;1.33;1.23;;;20.30;77.20;;;;;;7843232;28;20601;-53
2021/12/19 05:33:20;;;;;;;2.05;1.77;;;20.30;77.30;;;;;;7843333;28;20645;-50
2021/12/19 05:45:15;;;;;;;1.25;1.15;;;20.30;77.20;;;;;;7843183;28;20214;-49
2021/12/19 05:49:01;;;;;;;4.03;1.60;;;20.30;77.20;;;;;;7842539;28;20250;-50
2021/12/19 05:52:48;;;;;;;3.85;1.60;;;20.30;77.20;;;;;;7842893;28;20249;-50
2021/12/19 05:56:33;;;;;;;1.63;1.48;;;20.30;77.20;;;;;;7842778;28;20515;-49
2021/12/19 06:00:19;;;;;;;2.80;1.80;;;20.30;77.20;;;;;;7842346;28;20202;-49
2021/12/19 06:04:05;;;;;;;1.95;1.60;;;20.20;78.10;;;;;;7842473;28;20193;-50
2021/12/19 06:07:51;;;;;;;3.58;1.52;;;20.20;77.20;;;;;;7842151;28;20392;-51
2021/12/19 06:11:36;;;;;;;1.92;1.20;;;20.20;77.30;;;;;;7841702;28;20209;-49
2021/12/19 06:15:22;;;;;;;2.70;1.63;;;20.20;77.20;;;;;;7843013;28;20219;-51
2021/12/19 06:19:07;;;;;;;2.67;1.77;;;20.20;77.10;;;;;;7841800;28;20198;-52
2021/12/19 06:22:53;;;;;;;2.75;1.90;;;20.20;77.00;;;;;;7842006;28;20197;-50
2021/12/19 06:26:38;;;;;;;2.97;2.03;;;20.20;77.00;;;;;;7842220;28;20174;-50
2021/12/19 06:30:24;;;;;;;3.50;1.77;;;20.10;76.90;;;;;;7841481;28;20200;-50
2021/12/19 06:34:09;;;;;;;3.30;1.77;;;20.10;76.60;;;;;;7841711;28;20178;-49
2021/12/19 06:37:55;;;;;;;1.48;1.38;;;20.10;77.30;;;;;;7841388;28;20248;-49
2021/12/19 06:41:40;;;;;;;3.35;1.83;;;20.10;76.70;;;;;;7841549;28;20193;-49
2021/12/19 06:45:26;;;;;;;2.47;1.77;;;20.10;76.90;;;;;;7841576;28;20619;-49
2021/12/19 06:49:12;;;;;;;3.50;2.17;;;20.10;76.80;;;;;;7840985;28;20202;-49
2021/12/19 06:52:57;;;;;;;2.20;1.67;;;20.10;76.60;;;;;;7841259;28;20197;-52
2021/12/19 06:56:43;;;;;;;3.72;1.88;;;20.10;76.80;;;;;;7841194;28;20205;-51
2021/12/19 07:00:28;;;;;;;1.85;1.70;;;20.00;76.50;;;;;;7821836;28;20190;-50
2021/12/19 07:04:14;;;;;;;2.15;1.95;;;20.00;76.70;;;;;;7779437;28;20202;-51
2021/12/19 07:07:59;;;;;;;2.22;1.55;;;20.00;76.50;;;;;;7781224;28;20210;-50
2021/12/19 07:11:45;;;;;;;3.80;2.10;;;20.00;76.30;;;;;;7801246;28;20194;-53
2021/12/19 07:15:30;;;;;;;10.57;2.00;;;20.00;76.60;;;;;;7786183;28;20187;-50
2021/12/19 07:19:16;;;;;;;3.13;1.92;;;20.00;76.50;;;;;;7783922;28;20285;-51
2021/12/19 07:23:01;;;;;;;6.65;2.25;;;20.00;76.60;;;;;;7808559;28;20290;-51
2021/12/19 07:26:47;;;;;;;9.05;3.17;;;20.00;76.80;;;;;;7809056;28;20179;-50
2021/12/19 07:30:36;;;;;;;14.70;2.05;;;20.00;76.50;;;;;;7784386;28;20203;-51
2021/12/19 07:34:28;;;;;;;36.25;3.45;;;20.00;76.40;;;;;;7778440;28;20214;-52
2021/12/19 07:38:23;;;;;;;12.70;3.05;;;20.00;76.50;;;;;;7778197;28;20207;-54
2021/12/19 07:42:10;;;;;;;18.10;2.70;;;19.90;76.40;;;;;;7801321;28;20206;-51
2021/12/19 07:45:56;;;;;;;23.65;2.95;;;19.90;76.50;;;;;;7808783;28;20202;-51
2021/12/19 07:49:42;;;;;;;20.05;3.50;;;19.80;76.80;;;;;;7808348;28;20209;-49
2021/12/19 07:53:27;;;;;;;16.00;3.22;;;19.80;76.60;;;;;;7808441;28;20190;-51
2021/12/19 07:57:13;;;;;;;11.30;3.20;;;19.90;76.70;;;;;;7808305;28;20214;-51
2021/12/19 08:00:58;;;;;;;12.85;3.25;;;19.90;76.50;;;;;;7807988;28;20182;-49
2021/12/19 08:04:44;;;;;;;12.32;3.65;;;19.90;76.50;;;;;;7808323;28;20210;-51
2021/12/19 08:08:32;;;;;;;8.95;2.90;;;19.80;76.40;;;;;;7807795;28;20218;-50
2021/12/19 08:12:18;;;;;;;12.85;3.05;;;19.90;76.50;;;;;;7798445;28;20637;-50
2021/12/19 08:16:04;;;;;;;6.78;3.10;;;19.80;76.40;;;;;;7796954;28;20597;-49
2021/12/19 08:19:50;;;;;;;13.02;3.33;;;19.80;76.40;;;;;;7807503;28;20333;-50
2021/12/19 08:23:36;;;;;;;6.45;2.63;;;19.80;76.40;;;;;;7807688;28;20205;-49
2021/12/19 08:27:22;;;;;;;12.02;4.35;;;19.70;76.50;;;;;;7803122;28;20199;-50
2021/12/19 08:31:07;;;;;;;15.50;5.50;;;19.70;77.00;;;;;;7776569;28;20274;-51
2021/12/19 08:34:56;;;;;;;19.75;5.43;;;19.70;77.20;;;;;;7790784;28;20218;-51
2021/12/19 08:38:42;;;;;;;17.70;5.38;;;19.70;77.10;;;;;;7776303;28;20218;-52
2021/12/19 08:42:28;;;;;;;11.07;5.38;;;19.70;77.10;;;;;;7776759;28;20227;-52
2021/12/19 08:46:15;;;;;;;15.68;4.38;;;19.70;76.90;;;;;;7776551;28;20260;-50
2021/12/19 08:50:02;;;;;;;15.85;4.28;;;19.70;76.70;;;;;;7792514;28;20249;-57
2021/12/19 08:53:48;;;;;;;12.55;3.92;;;19.70;77.30;;;;;;7807086;28;20190;-57
2021/12/19 08:57:33;;;;;;;11.53;4.40;;;19.70;76.80;;;;;;7806119;28;20431;-56
2021/12/19 09:01:19;;;;;;;11.25;3.80;;;19.70;76.70;;;;;;7806887;28;20186;-57
2021/12/19 09:05:05;;;;;;;11.88;3.60;;;19.70;76.60;;;;;;7796184;28;20202;-57
2021/12/19 09:08:51;;;;;;;8.02;3.78;;;19.80;76.50;;;;;;7806535;28;20198;-58
2021/12/19 09:12:36;;;;;;;12.83;4.00;;;19.80;76.50;;;;;;7805113;28;20424;-57
2021/12/19 09:16:22;;;;;;;10.43;3.53;;;19.70;77.20;;;;;;7806603;28;20190;-60
2021/12/19 09:20:09;;;;;;;15.07;3.33;;;19.90;77.20;;;;;;7805948;28;20594;-60
2021/12/19 09:23:54;;;;;;;22.55;3.10;;;20.20;77.40;;;;;;7805824;28;20195;-60
2021/12/19 09:27:40;;;;;;;17.67;3.30;;;20.40;75.90;;;;;;7804703;28;20199;-60
2021/12/19 09:31:25;;;;;;;16.50;2.67;;;20.70;76.50;;;;;;7806504;28;20182;-59
2021/12/19 09:35:14;;;;;;;18.33;3.50;;;21.00;76.40;;;;;;7806545;28;20185;-61
2021/12/19 09:39:01;;;;;;;21.55;3.13;;;21.30;76.00;;;;;;7806029;28;20201;-61
2021/12/19 09:42:50;;;;;;;21.05;3.22;;;21.60;75.90;;;;;;7784230;28;20215;-61
2021/12/19 09:46:40;;;;;;;17.50;3.30;;;21.80;75.70;;;;;;7777827;28;20175;-61
2021/12/19 09:50:26;;;;;;;18.80;3.03;;;22.00;75.70;;;;;;7781043;28;20211;-61
2021/12/19 09:54:12;;;;;;;32.25;3.85;;;22.20;75.70;;;;;;7781524;28;20187;-60
2021/12/19 09:57:59;;;;;;;21.35;3.05;;;22.30;75.70;;;;;;7780946;28;20204;-60
2021/12/19 10:01:46;;;;;;;17.92;3.08;;;22.40;75.80;;;;;;7781058;28;20246;-61
2021/12/19 10:05:31;;;;;;;26.55;3.63;;;22.40;76.00;;;;;;7780918;28;20214;-60
2021/12/19 10:09:19;;;;;;;25.17;3.10;;;22.40;76.10;;;;;;7780623;28;20191;-60
2021/12/19 10:13:04;;;;;;;32.72;3.47;;;22.50;76.30;;;;;;7780841;28;20262;-61
2021/12/19 10:16:50;;;;;;;16.88;2.70;;;22.50;76.50;;;;;;7780701;28;20222;-61
2021/12/19 10:20:47;;;;;;;21.98;3.22;;;22.50;76.50;;;;;;7780618;28;20262;-60
2021/12/19 10:24:33;;;;;;;21.33;2.85;;;22.50;76.70;;;;;;7781036;28;20261;-61
2021/12/19 10:28:18;;;;;;;25.08;3.25;;;22.50;77.00;;;;;;7780583;28;20215;-61
2021/12/19 10:32:04;;;;;;;19.50;2.50;;;22.40;77.10;;;;;;7780637;28;20180;-60
2021/12/19 10:35:55;;;;;;;32.72;3.55;;;22.40;77.40;;;;;;7780413;28;20182;-61
2021/12/19 10:39:44;;;;;;;22.75;2.50;;;22.40;77.50;;;;;;7779760;28;20207;-60
2021/12/19 10:43:32;;;;;;;16.23;2.90;;;22.40;77.60;;;;;;7779723;28;20752;-60
2021/12/19 10:47:26;;;;;;;16.42;2.92;;;22.30;78.00;;;;;;7779729;28;20191;-60
2021/12/19 10:51:18;;;;;;;21.83;3.20;;;22.10;77.00;;;;;;7779724;28;20219;-60
2021/12/19 10:55:09;;;;;;;26.48;3.13;;;22.00;77.40;;;;;;7781884;28;20180;-61
2021/12/19 10:58:58;;;;;;;24.15;4.32;;;21.90;77.40;;;;;;7809581;28;20203;-60
2021/12/19 11:02:44;;;;;;;25.05;3.55;;;21.90;77.30;;;;;;7810020;28;20214;-59
2021/12/19 11:06:46;;;;;;;17.85;2.92;;;21.80;77.30;;;;;;7810037;28;20183;-61
2021/12/19 11:10:33;;;;;;;6.63;2.80;;;21.70;77.30;;;;;;7809472;28;20250;-60
2021/12/19 11:14:32;;;;;;;14.98;3.03;;;21.70;77.10;;;;;;7796329;28;20198;-60
2021/12/19 11:18:17;;;;;;;12.68;3.10;;;21.70;77.10;;;;;;7778844;28;20207;-60
2021/12/19 11:22:04;;;;;;;13.15;3.20;;;21.70;77.00;;;;;;7778724;28;20222;-61
2021/12/19 11:25:50;;;;;;;17.02;3.10;;;21.60;76.90;;;;;;7778647;28;20854;-61
2021/12/19 11:29:36;;;;;;;15.70;2.75;;;21.70;77.00;;;;;;7786195;28;20547;-61
2021/12/19 11:33:49;;;;;;;13.63;3.60;;;21.70;77.40;;;;;;7797596;28;20207;-61
2021/12/19 11:37:43;;;;;;;19.25;3.17;;;21.70;77.40;;;;;;7778136;28;20318;-59
2021/12/19 11:41:29;;;;;;;13.82;3.15;;;21.80;77.30;;;;;;7778023;28;20206;-61
2021/12/19 11:49:23;;;;;;;13.32;3.03;;;21.90;77.10;;;;;;7794929;28;20206;-61
2021/12/19 11:53:09;;;;;;;10.60;3.00;;;21.90;77.00;;;;;;7808728;28;20301;-61
2021/12/19 11:57:10;;;;;;;12.93;2.40;;;22.00;77.10;;;;;;7808452;28;20179;-61
2021/12/19 12:01:06;;;;;;;10.65;2.50;;;22.10;77.20;;;;;;7806849;28;20178;-61
2021/12/19 12:05:25;;;;;;;11.82;2.70;;;22.10;77.20;;;;;;7815806;28;20309;-60
2021/12/19 12:09:21;;;;;;;11.27;2.47;;;22.10;77.10;;;;;;7691649;28;20267;-60
2021/12/19 12:13:31;;;;;;;5.45;2.10;;;22.20;77.70;;;;;;7677156;28;20243;-60
2021/12/19 12:17:23;;;;;;;7.18;2.00;;;22.20;76.80;;;;;;7654193;29;20225;-60
2021/12/19 12:21:30;;;;;;;8.40;1.75;;;22.20;76.70;;;;;;7665557;29;20193;-61
2021/12/19 12:25:41;;;;;;;8.85;2.15;;;22.30;76.80;;;;;;7682728;29;20846;-60
2021/12/19 12:29:26;;;;;;;6.85;1.98;;;22.20;76.80;;;;;;7681652;28;20213;-60
2021/12/19 12:33:14;;;;;;;5.97;2.00;;;22.30;76.90;;;;;;7682416;28;20197;-60
2021/12/19 12:37:00;;;;;;;7.30;2.70;;;22.20;76.80;;;;;;7679955;28;20216;-60
2021/12/19 12:44:33;;;;;;;5.45;1.92;;;22.20;76.90;;;;;;7741548;28;20262;-61
2021/12/19 12:48:52;;;;;;;5.20;1.80;;;22.20;77.00;;;;;;7776325;28;20257;-59
2021/12/19 12:52:39;;;;;;;7.88;2.10;;;22.10;77.00;;;;;;7776567;28;20179;-61
2021/12/19 12:56:36;;;;;;;9.98;2.20;;;22.00;76.80;;;;;;7776727;28;20179;-61
2021/12/19 13:00:22;;;;;;;6.00;1.98;;;22.00;76.70;;;;;;7776106;28;20541;-61
2021/12/19 13:04:19;;;;;;;3.90;1.88;;;22.00;76.80;;;;;;7776359;28;20206;-59
2021/12/19 13:08:05;;;;;;;6.45;2.20;;;21.90;76.70;;;;;;7776027;28;20195;-60
2021/12/19 13:12:00;;;;;;;6.03;2.20;;;22.00;76.70;;;;;;7776322;28;20182;-60
2021/12/19 13:15:46;;;;;;;4.57;2.58;;;22.00;76.70;;;;;;7776290;28;20637;-61
2021/12/19 13:19:32;;;;;;;8.05;2.40;;;22.10;76.60;;;;;;7776270;28;20588;-61
2021/12/19 13:23:18;;;;;;;6.68;2.33;;;22.10;76.40;;;;;;7782149;28;20326;-60
2021/12/19 13:27:15;;;;;;;5.93;2.22;;;22.30;76.20;;;;;;7782065;28;20195;-61
2021/12/19 13:31:01;;;;;;;4.05;2.22;;;22.40;76.10;;;;;;7781785;28;20189;-61
2021/12/19 13:34:47;;;;;;;5.60;2.45;;;22.60;75.90;;;;;;7781929;28;20184;-60
2021/12/19 13:38:33;;;;;;;5.07;1.92;;;22.80;75.70;;;;;;7781451;28;20608;-60
2021/12/19 13:42:18;;;;;;;3.05;1.98;;;22.90;75.40;;;;;;7781785;28;20191;-61
2021/12/19 13:46:10;;;;;;;7.28;2.22;;;23.10;75.10;;;;;;7781713;28;20297;-60
2021/12/19 13:49:56;;;;;;;8.13;2.47;;;23.30;75.30;;;;;;7781400;28;20235;-61
2021/12/19 13:53:47;;;;;;;5.80;2.60;;;23.40;74.80;;;;;;7793087;28;20198;-61
2021/12/19 13:57:32;;;;;;;3.58;2.10;;;23.50;74.50;;;;;;7811632;28;20676;-61
2021/12/19 14:01:25;;;;;;;3.70;2.00;;;23.70;74.40;;;;;;7811757;28;20581;-61
2021/12/19 14:05:30;;;;;;;4.20;1.90;;;23.70;74.40;;;;;;7812006;28;20210;-60
2021/12/19 14:09:21;;;;;;;4.20;1.52;;;23.80;74.40;;;;;;7811603;28;20226;-60
2021/12/19 14:13:14;;;;;;;3.65;1.80;;;23.90;74.20;;;;;;7811514;28;20680;-60
2021/12/19 14:17:07;;;;;;;4.03;2.17;;;24.00;74.20;;;;;;7810118;28;20265;-60
2021/12/19 14:20:52;;;;;;;4.57;1.98;;;24.00;74.20;;;;;;7811036;28;20241;-60
2021/12/19 14:24:41;;;;;;;5.55;1.75;;;23.90;74.20;;;;;;7811106;28;20262;-60
2021/12/19 14:28:30;;;;;;;3.70;1.70;;;23.90;74.30;;;;;;7810594;28;20611;-60
2021/12/19 14:32:17;;;;;;;4.70;2.03;;;23.90;74.50;;;;;;7810519;28;20189;-60
2021/12/19 14:36:09;;;;;;;2.80;1.60;;;23.80;74.50;;;;;;7810818;28;20239;-61
2021/12/19 14:39:57;;;;;;;2.60;1.98;;;23.70;74.60;;;;;;7810388;28;20207;-60
2021/12/19 14:43:44;;;;;;;6.40;1.67;;;23.70;74.70;;;;;;7810453;28;20233;-60
2021/12/19 14:48:10;;;;;;;2.53;1.38;;;23.70;74.70;;;;;;7810220;28;20549;-60
2021/12/19 14:51:59;;;;;;;4.70;1.50;;;23.60;74.90;;;;;;7810173;28;20269;-61
2021/12/19 14:55:51;;;;;;;4.63;1.58;;;23.60;74.90;;;;;;7810390;28;20178;-60
2021/12/19 14:59:36;;;;;;;2.05;1.30;;;23.50;75.00;;;;;;7809717;28;20245;-60
2021/12/19 15:03:22;;;;;;;2.60;1.30;;;23.40;75.00;;;;;;7809945;28;20260;-60
2021/12/19 15:07:09;;;;;;;6.00;1.27;;;23.40;75.10;;;;;;7808568;28;20218;-61
2021/12/19 15:10:59;;;;;;;3.67;1.58;;;23.40;75.10;;;;;;7809522;28;20228;-60
2021/12/19 15:14:45;;;;;;;3.53;1.40;;;23.30;75.10;;;;;;7809874;28;20208;-60
2021/12/19 15:18:33;;;;;;;3.38;1.55;;;23.20;75.20;;;;;;7809292;28;20202;-60
2021/12/19 15:22:19;;;;;;;2.70;1.08;;;23.20;75.30;;;;;;7809764;28;20175;-60
2021/12/19 15:26:06;;;;;;;4.28;1.33;;;23.10;75.30;;;;;;7809491;28;20693;-60
2021/12/19 15:29:52;;;;;;;6.57;1.42;;;23.00;75.40;;;;;;7809090;28;20205;-60
2021/12/19 15:33:39;;;;;;;7.07;1.42;;;23.00;75.60;;;;;;7809356;28;20182;-61
2021/12/19 15:37:24;;;;;;;5.25;1.38;;;23.00;75.60;;;;;;7818293;28;20279;-61
2021/12/19 15:41:10;;;;;;;3.20;1.00;;;22.90;75.60;;;;;;7800147;28;20198;-60
2021/12/19 15:44:56;;;;;;;19.85;1.65;;;22.80;75.40;;;;;;7807894;28;20218;-61
2021/12/19 15:48:41;;;;;;;4.60;1.35;;;22.70;74.90;;;;;;7808536;28;20190;-60
2021/12/19 15:52:26;;;;;;;6.57;1.30;;;22.60;75.40;;;;;;7808584;28;20182;-60
2021/12/19 15:56:12;;;;;;;7.90;2.28;;;22.60;75.50;;;;;;7808506;28;20182;-61
2021/12/19 15:59:57;;;;;;;3.25;1.85;;;22.60;75.50;;;;;;7808118;28;20202;-60
2021/12/19 16:03:43;;;;;;;5.40;1.45;;;22.50;75.50;;;;;;7808120;28;20230;-60
2021/12/19 16:07:29;;;;;;;6.85;1.33;;;22.50;75.50;;;;;;7807878;28;20596;-59
2021/12/19 16:11:14;;;;;;;7.88;1.55;;;22.50;75.50;;;;;;7806375;28;20202;-60
2021/12/19 16:15:00;;;;;;;3.20;1.17;;;22.50;75.50;;;;;;7807976;28;20190;-59
2021/12/19 16:18:46;;;;;;;7.53;1.80;;;22.50;75.60;;;;;;7807385;28;20577;-59
2021/12/19 16:22:31;;;;;;;7.25;1.30;;;22.40;75.60;;;;;;7807952;28;20573;-59
2021/12/19 16:26:17;;;;;;;5.63;1.25;;;22.40;75.50;;;;;;7806221;28;20214;-60
2021/12/19 16:30:06;;;;;;;7.80;1.42;;;22.40;75.70;;;;;;7807321;28;20205;-60
2021/12/19 16:33:51;;;;;;;6.30;1.38;;;22.30;75.50;;;;;;7807509;28;20659;-59
2021/12/19 16:37:38;;;;;;;4.97;1.20;;;22.30;75.60;;;;;;7807142;28;20599;-59
2021/12/19 16:41:31;;;;;;;7.80;1.10;;;22.30;75.70;;;;;;7807642;28;20216;-59
2021/12/19 16:45:16;;;;;;;3.65;1.23;;;22.20;75.60;;;;;;7807331;28;20216;-59
2021/12/19 16:49:02;;;;;;;6.47;1.45;;;22.20;75.70;;;;;;7807089;28;20198;-59
2021/12/19 16:52:47;;;;;;;3.95;1.38;;;22.10;75.80;;;;;;7807268;28;20256;-59
2021/12/19 16:56:33;;;;;;;2.67;0.95;;;22.00;75.80;;;;;;7807057;28;20629;-60
2021/12/19 17:00:21;;;;;;;3.92;1.40;;;22.00;76.00;;;;;;7807226;28;20708;-59
2021/12/19 17:04:07;;;;;;;6.35;1.10;;;22.00;76.20;;;;;;7807265;28;20271;-59
2021/12/19 17:07:53;;;;;;;5.57;1.20;;;22.00;76.30;;;;;;7792098;28;20214;-60
2021/12/19 17:11:49;;;;;;;3.20;1.30;;;21.90;76.30;;;;;;7778074;28;20194;-59
2021/12/19 17:15:34;;;;;;;4.72;1.20;;;21.90;76.40;;;;;;7777029;28;20179;-59
2021/12/19 17:19:20;;;;;;;3.40;1.20;;;21.90;76.50;;;;;;7776044;28;20203;-60
2021/12/19 17:23:07;;;;;;;3.10;1.05;;;21.90;76.40;;;;;;7776410;28;20290;-60
2021/12/19 17:26:53;;;;;;;2.53;1.35;;;21.90;76.40;;;;;;7798081;28;20190;-60
2021/12/19 17:30:39;;;;;;;17.13;2.92;;;21.90;76.40;;;;;;7889611;22;20280;-62
2021/12/19 17:34:25;;;;;;;11.38;2.05;;;21.80;75.40;;;;;;7844445;28;20194;-63
2021/12/19 17:38:10;;;;;;;7.60;1.88;;;21.50;74.50;;;;;;7867502;28;20269;-62
2021/12/19 17:41:57;;;;;;;14.70;2.28;;;21.30;75.10;;;;;;7868379;28;20174;-62
2021/12/19 17:45:43;;;;;;;4.82;1.80;;;21.40;75.20;;;;;;7868120;28;20209;-63
2021/12/19 17:49:28;;;;;;;9.88;1.98;;;21.50;75.10;;;;;;7856208;28;20229;-62
2021/12/19 17:53:15;;;;;;;14.25;1.85;;;21.70;75.00;;;;;;7866333;28;20276;-62
2021/12/19 17:57:00;;;;;;;7.63;2.05;;;21.70;75.00;;;;;;7868104;28;20181;-62
2021/12/19 18:00:46;;;;;;;8.00;1.80;;;21.90;74.80;;;;;;7867386;28;20197;-62
2021/12/19 18:04:38;;;;;;;12.52;2.28;;;22.00;74.50;;;;;;7867823;28;20216;-62
2021/12/19 18:08:25;;;;;;;9.00;2.83;;;22.20;74.10;;;;;;7869000;28;20204;-62
2021/12/19 18:12:11;;;;;;;5.63;2.38;;;22.40;73.90;;;;;;7871083;28;20593;-63
2021/12/19 18:15:58;;;;;;;7.57;2.30;;;22.50;73.60;;;;;;7862469;28;20200;-63
2021/12/19 18:19:43;;;;;;;10.70;2.33;;;22.60;73.50;;;;;;7863351;28;20206;-62
2021/12/19 18:23:29;;;;;;;8.38;2.28;;;22.70;73.60;;;;;;7864290;28;20189;-63
2021/12/19 18:27:14;;;;;;;9.18;2.40;;;22.90;73.70;;;;;;7862421;28;20185;-62
2021/12/19 18:31:00;;;;;;;6.03;2.20;;;23.00;73.80;;;;;;7842224;28;20210;-62
2021/12/19 18:34:48;;;;;;;10.50;2.20;;;23.10;73.70;;;;;;7840861;28;20186;-62
2021/12/19 18:38:35;;;;;;;10.57;2.40;;;23.20;73.80;;;;;;7838254;28;20699;-62
2021/12/19 18:43:10;;;;;;;12.23;2.40;;;23.10;74.00;;;;;;7853564;28;20271;-62
2021/12/19 18:46:49;;;;;;;7.97;2.58;;;23.20;74.10;;;;;;7847031;28;20259;-62
2021/12/19 18:50:54;;;;;;;6.15;1.95;;;23.30;74.40;;;;;;7839294;28;20575;-62
2021/12/19 18:58:29;;;;;;;7.90;2.15;;;23.30;73.80;;;;;;7838665;28;20198;-62
2021/12/19 19:02:27;;;;;;;9.38;2.45;;;23.30;74.10;;;;;;7860710;28;20185;-62
2021/12/19 19:06:27;;;;;;;6.97;2.00;;;23.30;74.20;;;;;;7853582;28;20735;-62
2021/12/19 19:10:12;;;;;;;15.20;2.80;;;23.30;74.30;;;;;;7866824;28;20467;-70
2021/12/19 19:14:00;;;;;;;16.23;2.50;;;22.80;76.00;;;;;;7871148;28;20185;-70
2021/12/19 19:17:46;;;;;;;14.60;2.28;;;23.00;75.60;;;;;;7870222;28;20182;-70
2021/12/19 19:21:33;;;;;;;17.15;4.30;;;23.10;75.00;;;;;;7870280;28;20254;-69
2021/12/19 19:25:19;;;;;;;13.10;4.07;;;23.00;73.70;;;;;;7870618;28;20204;-69
2021/12/19 19:29:07;;;;;;;11.45;3.47;;;22.90;73.30;;;;;;7869681;28;20213;-69
2021/12/19 19:32:52;;;;;;;10.10;3.47;;;22.90;73.40;;;;;;7870118;28;20193;-69
2021/12/19 19:36:42;;;;;;;19.75;3.75;;;23.00;73.40;;;;;;7870472;28;20177;-70
2021/12/19 19:40:45;;;;;;;13.07;3.60;;;23.10;73.60;;;;;;7868485;28;20199;-70
2021/12/19 19:48:53;;;;;;;10.80;3.38;;;23.30;75.20;;;;;;7869005;28;20193;-69
2021/12/19 19:52:38;;;;;;;17.65;3.20;;;23.40;76.30;;;;;;7869379;28;20165;-69
2021/12/19 19:56:24;;;;;;;8.93;3.28;;;23.60;75.90;;;;;;7869509;28;20212;-69
2021/12/19 20:00:13;;;;;;;10.48;2.95;;;23.80;75.90;;;;;;7856515;28;20199;-68
2021/12/19 20:03:58;;;;;;;9.00;2.95;;;24.00;75.80;;;;;;7852439;28;20245;-68
2021/12/19 20:07:44;;;;;;;9.50;3.05;;;24.40;75.60;;;;;;7868603;28;20227;-68
2021/12/19 20:11:30;;;;;;;5.90;2.80;;;24.60;75.30;;;;;;7868644;28;20177;-68
2021/12/19 20:15:16;;;;;;;8.27;2.88;;;24.80;75.10;;;;;;7869057;28;20670;-68
2021/12/19 20:19:04;;;;;;;5.55;2.47;;;25.10;74.90;;;;;;7868387;28;20220;-68
2021/12/19 20:22:50;;;;;;;5.90;2.53;;;25.30;74.90;;;;;;7865001;28;20189;-68
2021/12/19 20:26:35;;;;;;;5.68;2.33;;;25.50;74.80;;;;;;7854062;28;20178;-68
2021/12/19 20:30:25;;;;;;;4.60;2.28;;;25.60;74.80;;;;;;7842526;28;20209;-66
2021/12/19 20:34:11;;;;;;;5.75;2.35;;;25.70;74.80;;;;;;7847270;28;20178;-69
2021/12/19 20:37:57;;;;;;;4.75;2.00;;;25.80;74.50;;;;;;7836915;28;20173;-69
2021/12/19 20:41:46;;;;;;;8.13;2.22;;;25.90;74.50;;;;;;7857669;28;20584;-69